createdAt,value
2023-07-26T00:01:13.198Z,49645.28
2023-07-26T00:03:40.029Z,49661.22
2023-07-26T00:06:06.756Z,49631.31
2023-07-26T00:08:33.408Z,49617.38
2023-07-26T00:11:00.079Z,49633.31
2023-07-26T00:13:26.833Z,49615.38
2023-07-26T00:15:53.498Z,49627.31
2023-07-26T00:18:20.183Z,49637.28
2023-07-26T00:20:46.946Z,49639.28
2023-07-26T00:23:13.670Z,49631.31
2023-07-26T00:25:40.350Z,49607.41
2023-07-26T00:28:06.976Z,49589.44
2023-07-26T00:30:33.731Z,49635.31
2023-07-26T00:33:00.525Z,49611.38
2023-07-26T00:35:29.550Z,49623.34
2023-07-26T00:37:56.371Z,49619.34
2023-07-26T00:40:25.183Z,49645.28
2023-07-26T00:42:52.232Z,49659.22
2023-07-26T00:45:19.008Z,49619.34
2023-07-26T00:47:46.858Z,49635.31
2023-07-26T00:50:13.816Z,49603.41
2023-07-26T00:52:41.104Z,49605.41
2023-07-26T00:55:08.629Z,49613.38
2023-07-26T00:57:35.950Z,49623.34
2023-07-26T01:00:03.726Z,49631.31
2023-07-26T01:02:30.518Z,49631.31
2023-07-26T01:04:57.641Z,49623.34
2023-07-26T01:07:57.626Z,49607.41
2023-07-26T01:10:41.540Z,49617.38
2023-07-26T01:13:18.823Z,49641.28
2023-07-26T01:15:47.695Z,49633.31
2023-07-26T01:18:16.190Z,49607.41
2023-07-26T01:20:43.765Z,49659.22
2023-07-26T01:23:11.066Z,49643.28
2023-07-26T01:25:38.279Z,49619.34
2023-07-26T01:28:05.198Z,49639.28
2023-07-26T01:30:34.115Z,49659.22
2023-07-26T01:33:05.258Z,49651.25
2023-07-26T01:35:32.316Z,49643.28
2023-07-26T01:38:00.549Z,49631.31
2023-07-26T01:40:27.765Z,49633.31
2023-07-26T01:42:55.481Z,49655.25
2023-07-26T01:45:22.372Z,49647.25
2023-07-26T01:47:53.872Z,49625.34
2023-07-26T01:50:20.643Z,49613.38
2023-07-26T01:52:47.467Z,49623.34
2023-07-26T01:55:14.862Z,49647.25
2023-07-26T01:57:41.559Z,49623.34
2023-07-26T02:00:09.009Z,49695.09
2023-07-26T02:02:41.508Z,49655.25
2023-07-26T02:05:08.570Z,49685.13
2023-07-26T02:07:35.788Z,49677.16
2023-07-26T02:10:02.619Z,49653.25
2023-07-26T02:12:29.367Z,49635.31
2023-07-26T02:14:56.232Z,49619.34
2023-07-26T02:17:23.381Z,49655.25
2023-07-26T02:19:50.106Z,49651.25
2023-07-26T02:22:16.835Z,49659.22
2023-07-26T02:24:43.702Z,49671.19
2023-07-26T02:27:10.465Z,49673.19
2023-07-26T02:29:37.449Z,49661.22
2023-07-26T02:32:04.523Z,49647.25
2023-07-26T02:34:31.356Z,49659.22
2023-07-26T02:36:58.054Z,49631.31
2023-07-26T02:39:24.972Z,49687.13
2023-07-26T02:41:51.643Z,49639.28
2023-07-26T02:44:18.366Z,49687.13
2023-07-26T02:46:45.037Z,49655.25
2023-07-26T02:49:11.702Z,49623.34
2023-07-26T02:51:38.670Z,49667.19
2023-07-26T02:54:05.389Z,49659.22
2023-07-26T02:56:32.036Z,49683.16
2023-07-26T02:58:58.773Z,49693.13
2023-07-26T03:01:25.446Z,49659.22
2023-07-26T03:03:52.246Z,49671.19
2023-07-26T03:06:19.613Z,49683.16
2023-07-26T03:08:46.247Z,49617.38
2023-07-26T03:11:14.112Z,49661.22
2023-07-26T03:13:40.864Z,49679.16
2023-07-26T03:16:07.563Z,49639.28
2023-07-26T03:18:34.295Z,49687.13
2023-07-26T03:21:00.962Z,49673.19
2023-07-26T03:23:27.637Z,49653.25
2023-07-26T03:25:54.536Z,49677.16
2023-07-26T03:28:21.153Z,49647.25
2023-07-26T03:30:47.798Z,49657.22
2023-07-26T03:33:15.266Z,49623.34
2023-07-26T03:35:41.947Z,49687.13
2023-07-26T03:38:08.774Z,49679.16
2023-07-26T03:40:35.565Z,49687.13
2023-07-26T03:43:02.253Z,49661.22
2023-07-26T03:45:29.730Z,49651.25
2023-07-26T03:47:56.682Z,49667.19
2023-07-26T03:50:23.370Z,49659.22
2023-07-26T03:52:50.066Z,49675.19
2023-07-26T03:55:16.880Z,49615.38
2023-07-26T03:57:44.269Z,49663.22
2023-07-26T04:00:13.196Z,49671.19
2023-07-26T04:02:40.264Z,49695.09
2023-07-26T04:05:07.271Z,49697.09
2023-07-26T04:07:37.721Z,49707.06
2023-07-26T04:10:05.117Z,49691.13
2023-07-26T04:12:31.843Z,49671.19
2023-07-26T04:14:58.801Z,49655.25
2023-07-26T04:17:25.592Z,49655.25
2023-07-26T04:19:52.701Z,49667.19
2023-07-26T04:22:19.479Z,49675.19
2023-07-26T04:24:47.065Z,49671.19
2023-07-26T04:27:13.913Z,49687.13
2023-07-26T04:29:43.770Z,49671.19
2023-07-26T04:32:10.721Z,49649.25
2023-07-26T04:34:37.464Z,49655.25
2023-07-26T04:37:04.185Z,49679.16
2023-07-26T04:39:30.930Z,49687.13
2023-07-26T04:41:57.581Z,49675.19
2023-07-26T04:44:24.269Z,49683.16
2023-07-26T04:46:50.998Z,49661.22
2023-07-26T04:49:17.816Z,49695.09
2023-07-26T04:51:44.505Z,49693.13
2023-07-26T04:54:11.194Z,49659.22
2023-07-26T04:56:37.906Z,49709.06
2023-07-26T04:59:04.931Z,49667.19
2023-07-26T05:01:31.857Z,49671.19
2023-07-26T05:03:58.803Z,49677.16
2023-07-26T05:06:25.685Z,49663.22
2023-07-26T05:08:53.222Z,49687.13
2023-07-26T05:11:24.117Z,49671.19
2023-07-26T05:13:51.150Z,49663.22
2023-07-26T05:16:17.949Z,49675.19
2023-07-26T05:18:44.778Z,49671.19
2023-07-26T05:21:11.456Z,49671.19
2023-07-26T05:23:38.122Z,49635.31
2023-07-26T05:26:05.067Z,49667.19
2023-07-26T05:28:31.800Z,49659.22
2023-07-26T05:30:58.589Z,49661.22
2023-07-26T05:33:27.196Z,49695.09
2023-07-26T05:35:53.898Z,49663.22
2023-07-26T05:38:21.009Z,49645.28
2023-07-26T05:40:47.908Z,49693.13
2023-07-26T05:43:14.704Z,49673.19
2023-07-26T05:45:42.934Z,49671.19
2023-07-26T05:48:09.814Z,49687.13
2023-07-26T05:50:37.190Z,49679.16
2023-07-26T05:53:03.868Z,49641.28
2023-07-26T05:55:30.536Z,49677.16
2023-07-26T05:57:57.309Z,49639.28
2023-07-26T06:00:23.947Z,49677.16
2023-07-26T06:02:50.703Z,49657.22
2023-07-26T06:05:17.455Z,49667.19
2023-07-26T06:07:44.211Z,49663.22
2023-07-26T06:10:10.965Z,49679.16
2023-07-26T06:12:37.713Z,49625.34
2023-07-26T06:15:04.791Z,49655.25
2023-07-26T06:17:31.818Z,49667.19
2023-07-26T06:19:59.041Z,49639.28
2023-07-26T06:22:25.790Z,49703.09
2023-07-26T06:24:52.541Z,49689.13
2023-07-26T06:27:23.405Z,49659.22
2023-07-26T06:29:50.209Z,49655.25
2023-07-26T06:32:16.914Z,49633.31
2023-07-26T06:34:43.996Z,49663.22
2023-07-26T06:37:10.734Z,49647.25
2023-07-26T06:39:37.394Z,49627.31
2023-07-26T06:42:04.434Z,49649.25
2023-07-26T06:44:31.149Z,49683.16
2023-07-26T06:46:57.807Z,49695.09
2023-07-26T06:49:24.558Z,49687.13
2023-07-26T06:51:52.272Z,49681.16
2023-07-26T06:54:18.986Z,49655.25
2023-07-26T06:56:45.662Z,49671.19
2023-07-26T06:59:13.450Z,49679.16
2023-07-26T07:01:40.598Z,49651.25
2023-07-26T07:04:13.498Z,49675.19
2023-07-26T07:06:41.233Z,49665.22
2023-07-26T07:09:07.999Z,49683.16
2023-07-26T07:11:35.003Z,49685.13
2023-07-26T07:14:02.093Z,49647.25
2023-07-26T07:16:30.186Z,49657.22
2023-07-26T07:18:57.225Z,49671.19
2023-07-26T07:21:26.015Z,49653.25
2023-07-26T07:23:53.564Z,49637.28
2023-07-26T07:26:20.461Z,49647.25
2023-07-26T07:28:47.132Z,49627.31
2023-07-26T07:31:13.989Z,49643.28
2023-07-26T07:33:40.791Z,49659.22
2023-07-26T07:36:08.268Z,49641.28
2023-07-26T07:38:35.094Z,49669.19
2023-07-26T07:41:02.105Z,49615.38
2023-07-26T07:43:28.906Z,49635.31
2023-07-26T07:45:55.653Z,49637.28
2023-07-26T07:48:22.406Z,49657.22
2023-07-26T07:50:55.329Z,49635.31
2023-07-26T07:53:22.864Z,49633.31
2023-07-26T07:55:49.705Z,49633.31
2023-07-26T07:58:16.416Z,49643.28
2023-07-26T08:00:43.166Z,49643.28
2023-07-26T08:03:10.039Z,49687.13
2023-07-26T08:05:37.173Z,49637.28
2023-07-26T08:08:04.108Z,49639.28
2023-07-26T08:10:30.797Z,49617.38
2023-07-26T08:12:57.473Z,49623.34
2023-07-26T08:15:24.195Z,49631.31
2023-07-26T08:17:50.864Z,49631.31
2023-07-26T08:20:17.681Z,49629.31
2023-07-26T08:22:44.371Z,49591.44
2023-07-26T08:25:11.776Z,49625.34
2023-07-26T08:27:38.501Z,49629.31
2023-07-26T08:30:05.837Z,49595.44
2023-07-26T08:32:32.570Z,49635.31
2023-07-26T08:34:59.248Z,49611.38
2023-07-26T08:37:25.933Z,49621.34
2023-07-26T08:39:52.653Z,49609.38
2023-07-26T08:42:19.325Z,49615.38
2023-07-26T08:44:50.494Z,49611.38
2023-07-26T08:47:19.506Z,49621.34
2023-07-26T08:49:47.564Z,49643.28
2023-07-26T08:52:15.768Z,49619.34
2023-07-26T08:54:44.559Z,49595.44
2023-07-26T08:57:12.019Z,49617.38
2023-07-26T08:59:38.900Z,49629.31
2023-07-26T09:02:06.363Z,49599.41
2023-07-26T09:04:34.414Z,49603.41
2023-07-26T09:07:02.890Z,49605.41
2023-07-26T09:09:32.426Z,49595.44
2023-07-26T09:11:59.109Z,49595.44
2023-07-26T09:14:28.493Z,49595.44
2023-07-26T09:16:57.616Z,49563.53
2023-07-26T09:19:44.591Z,49609.38
2023-07-26T09:22:11.258Z,49619.34
2023-07-26T09:24:42.192Z,49627.31
2023-07-26T09:27:13.454Z,49597.44
2023-07-26T09:29:41.823Z,49599.41
2023-07-26T09:32:09.111Z,49605.41
2023-07-26T09:34:36.378Z,49613.38
2023-07-26T09:37:03.591Z,49599.41
2023-07-26T09:39:30.569Z,49587.47
2023-07-26T09:42:11.015Z,49607.41
2023-07-26T09:44:38.310Z,49619.34
2023-07-26T09:47:05.905Z,49619.34
2023-07-26T09:49:32.814Z,49591.44
2023-07-26T09:54:34.378Z,49631.31
2023-07-26T09:57:03.039Z,49585.47
2023-07-26T09:59:31.345Z,49625.34
2023-07-26T10:02:03.677Z,49569.50
2023-07-26T10:04:36.304Z,49577.50
2023-07-26T10:07:05.841Z,49567.53
2023-07-26T10:09:33.891Z,49563.53
2023-07-26T10:12:05.020Z,49583.47
2023-07-26T10:14:32.864Z,49577.50
2023-07-26T10:16:59.747Z,49567.53
2023-07-26T10:19:30.272Z,49565.53
2023-07-26T10:21:58.769Z,49555.56
2023-07-26T10:24:27.339Z,49561.53
2023-07-26T10:26:55.346Z,49563.53
2023-07-26T10:29:22.312Z,49579.47
2023-07-26T10:32:04.912Z,49549.59
2023-07-26T10:34:31.975Z,49575.50
2023-07-26T10:36:58.728Z,49523.66
2023-07-26T10:39:40.176Z,49539.63
2023-07-26T10:42:21.214Z,49507.72
2023-07-26T10:44:47.999Z,49545.59
2023-07-26T10:47:15.188Z,49561.53
2023-07-26T10:49:47.954Z,49583.47
2023-07-26T10:52:15.587Z,49539.63
2023-07-26T10:54:50.978Z,49537.63
2023-07-26T10:57:23.830Z,49555.56
2023-07-26T11:00:11.821Z,49547.59
2023-07-26T11:02:51.304Z,49533.63
2023-07-26T11:05:31.260Z,49539.63
2023-07-26T11:08:03.855Z,49563.53
2023-07-26T11:10:50.303Z,49527.66
2023-07-26T11:13:19.573Z,49595.44
2023-07-26T11:15:47.909Z,49571.50
2023-07-26T11:18:17.706Z,49613.38
2023-07-26T11:20:49.489Z,49553.56
2023-07-26T11:23:27.487Z,49563.53
2023-07-26T11:26:02.016Z,49547.59
2023-07-26T11:28:33.607Z,49505.72
2023-07-26T11:31:01.461Z,49519.69
2023-07-26T11:33:32.639Z,49513.69
2023-07-26T11:36:05.414Z,49523.66
2023-07-26T11:38:32.401Z,49519.69
2023-07-26T11:40:59.254Z,49519.69
2023-07-26T11:43:27.892Z,49467.84
2023-07-26T11:45:56.780Z,49529.66
2023-07-26T11:48:25.714Z,49541.59
2023-07-26T11:50:56.707Z,49491.78
2023-07-26T11:53:40.557Z,49531.63
2023-07-26T11:56:11.430Z,49541.59
2023-07-26T11:58:38.585Z,49479.81
2023-07-26T12:01:06.872Z,49507.72
2023-07-26T12:03:33.770Z,49509.72
2023-07-26T12:06:04.543Z,49505.72
2023-07-26T12:08:35.404Z,49511.72
2023-07-26T12:11:06.779Z,49537.63
2023-07-26T12:13:35.066Z,49499.75
2023-07-26T12:16:03.961Z,49473.84
2023-07-26T12:18:31.127Z,49541.59
2023-07-26T12:21:06.324Z,49489.78
2023-07-26T12:24:03.700Z,49499.75
2023-07-26T12:26:35.472Z,49521.69
2023-07-26T12:29:05.600Z,49509.72
2023-07-26T12:31:38.384Z,49523.66
2023-07-26T12:34:09.399Z,49499.75
2023-07-26T12:36:39.149Z,49481.81
2023-07-26T12:39:09.588Z,49477.81
2023-07-26T12:41:39.579Z,49483.81
2023-07-26T12:44:08.141Z,49563.53
2023-07-26T12:47:01.598Z,49503.72
2023-07-26T12:49:26.298Z,49499.75
2023-07-26T12:51:53.223Z,49495.75
2023-07-26T12:54:20.030Z,49523.66
2023-07-26T12:56:47.750Z,49527.66
2023-07-26T12:59:14.532Z,49537.63
2023-07-26T13:01:42.128Z,49491.78
2023-07-26T13:04:10.239Z,49493.75
2023-07-26T13:06:38.857Z,49465.84
2023-07-26T13:09:06.762Z,49455.88
2023-07-26T13:11:33.776Z,49481.81
2023-07-26T13:14:00.574Z,49435.97
2023-07-26T13:16:31.544Z,49481.81
2023-07-26T13:19:04.284Z,49471.84
2023-07-26T13:21:31.723Z,49483.81
2023-07-26T13:23:58.734Z,49497.75
2023-07-26T13:26:27.348Z,49503.72
2023-07-26T13:28:54.009Z,49483.81
2023-07-26T13:31:21.006Z,49497.75
2023-07-26T13:33:50.986Z,49465.84
2023-07-26T13:36:24.954Z,49465.84
2023-07-26T13:38:52.089Z,49511.72
2023-07-26T13:41:19.915Z,49491.78
2023-07-26T13:43:47.012Z,49491.78
2023-07-26T13:46:32.478Z,49481.81
2023-07-26T13:49:00.507Z,49483.81
2023-07-26T13:51:27.214Z,49493.75
2023-07-26T13:53:53.878Z,49505.72
2023-07-26T13:56:20.544Z,49463.88
2023-07-26T13:58:49.190Z,49473.84
2023-07-26T14:01:17.554Z,49479.81
2023-07-26T14:03:44.850Z,49447.91
2023-07-26T14:06:11.604Z,49485.78
2023-07-26T14:08:38.482Z,49495.75
2023-07-26T14:11:05.296Z,49475.81
2023-07-26T14:13:32.333Z,49467.84
2023-07-26T14:16:11.477Z,49483.81
2023-07-26T14:18:46.397Z,49483.81
2023-07-26T14:21:13.068Z,49465.84
2023-07-26T14:23:40.352Z,49439.94
2023-07-26T14:26:07.089Z,49459.88
2023-07-26T14:28:33.733Z,49439.94
2023-07-26T14:31:00.448Z,49485.78
2023-07-26T14:33:27.279Z,49451.91
2023-07-26T14:35:53.917Z,49503.72
2023-07-26T14:38:20.568Z,49511.72
2023-07-26T14:40:47.547Z,49523.66
2023-07-26T14:43:14.315Z,49475.81
2023-07-26T14:45:43.313Z,49422.00
2023-07-26T14:48:11.344Z,49406.06
2023-07-26T14:50:40.513Z,49435.97
2023-07-26T14:53:07.325Z,49445.94
2023-07-26T14:55:34.101Z,49410.03
2023-07-26T14:58:00.744Z,49447.91
2023-07-26T15:00:27.502Z,49386.13
2023-07-26T15:02:54.389Z,49437.94
2023-07-26T15:05:21.257Z,49410.03
2023-07-26T15:07:48.159Z,49388.13
2023-07-26T15:10:16.346Z,49396.09
2023-07-26T15:12:45.284Z,49416.03
2023-07-26T15:15:12.875Z,49416.03
2023-07-26T15:17:39.577Z,49400.06
2023-07-26T15:20:07.118Z,49420.00
2023-07-26T15:22:33.778Z,49412.03
2023-07-26T15:25:00.521Z,49396.09
2023-07-26T15:27:27.552Z,49356.22
2023-07-26T15:29:54.225Z,49414.03
2023-07-26T15:32:24.056Z,49386.13
2023-07-26T15:34:57.679Z,49392.09
2023-07-26T15:37:24.490Z,49396.09
2023-07-26T15:39:51.215Z,49453.91
2023-07-26T15:42:27.987Z,49467.84
2023-07-26T15:47:25.410Z,49416.03
2023-07-26T15:52:22.019Z,49422.00
2023-07-26T15:54:48.767Z,49465.84
2023-07-26T15:57:15.554Z,49475.81
2023-07-26T15:59:42.306Z,49457.88
2023-07-26T16:02:09.308Z,49435.97
2023-07-26T16:04:36.559Z,49427.97
2023-07-26T16:07:03.693Z,49398.09
2023-07-26T16:09:30.551Z,49388.13
2023-07-26T16:21:56.120Z,49515.69
2023-07-26T16:24:25.549Z,49487.78
2023-07-26T16:26:52.306Z,49513.69
2023-07-26T16:29:19.050Z,49541.59
2023-07-26T16:31:47.058Z,49513.69
2023-07-26T16:34:13.731Z,49507.72
2023-07-26T16:36:40.398Z,49501.75
2023-07-26T16:39:07.254Z,49509.72
2023-07-26T16:41:34.219Z,49487.78
2023-07-26T16:44:01.144Z,49483.81
2023-07-26T16:46:37.663Z,49507.72
2023-07-26T16:49:14.488Z,49497.75
2023-07-26T16:51:43.081Z,49531.63
2023-07-26T16:54:09.751Z,49513.69
2023-07-26T16:56:36.408Z,49457.88
2023-07-26T16:59:03.143Z,49467.84
2023-07-26T17:01:30.679Z,49416.03
2023-07-26T17:03:57.259Z,49396.09
2023-07-26T17:06:24.015Z,49439.94
2023-07-26T17:08:50.726Z,49491.78
2023-07-26T17:11:17.559Z,49483.81
2023-07-26T17:13:44.281Z,49473.84
2023-07-26T17:16:16.045Z,49491.78
2023-07-26T17:18:50.092Z,49499.75
2023-07-26T17:21:17.528Z,49499.75
2023-07-26T17:23:44.639Z,49469.84
2023-07-26T17:26:11.596Z,49473.84
2023-07-26T17:28:38.318Z,49481.81
2023-07-26T17:31:05.075Z,49475.81
2023-07-26T17:33:32.528Z,49453.91
2023-07-26T17:35:59.392Z,49479.81
2023-07-26T17:38:26.144Z,49447.91
2023-07-26T17:41:06.873Z,49429.97
2023-07-26T17:43:35.107Z,49429.97
2023-07-26T17:46:02.792Z,49471.84
2023-07-26T17:48:33.504Z,49473.84
2023-07-26T17:51:01.180Z,49491.78
2023-07-26T17:53:30.778Z,49521.69
2023-07-26T17:55:57.496Z,49519.69
2023-07-26T17:58:24.253Z,49513.69
2023-07-26T18:00:50.999Z,49545.59
2023-07-26T18:03:17.841Z,49515.69
2023-07-26T18:05:47.290Z,49499.75
2023-07-26T18:08:17.126Z,49507.72
2023-07-26T18:10:43.791Z,49527.66
2023-07-26T18:13:10.447Z,49517.69
2023-07-26T18:15:37.182Z,49527.66
2023-07-26T18:18:03.977Z,49523.66
2023-07-26T18:20:32.129Z,49525.66
2023-07-26T18:22:58.921Z,49523.66
2023-07-26T18:25:25.701Z,49511.72
2023-07-26T18:27:54.338Z,49513.69
2023-07-26T18:30:23.332Z,49495.75
2023-07-26T18:32:50.640Z,49527.66
2023-07-26T18:35:17.504Z,49515.69
2023-07-26T18:37:44.321Z,49507.72
2023-07-26T18:40:11.158Z,49559.56
2023-07-26T18:42:37.905Z,49501.75
2023-07-26T18:45:06.280Z,49567.53
2023-07-26T18:47:33.195Z,49541.59
2023-07-26T18:49:59.946Z,49529.66
2023-07-26T18:52:26.685Z,49515.69
2023-07-26T18:54:53.431Z,49513.69
2023-07-26T18:57:20.157Z,49517.69
2023-07-26T18:59:46.952Z,49539.63
2023-07-26T19:02:13.680Z,49519.69
2023-07-26T19:04:40.386Z,49561.53
2023-07-26T19:07:07.880Z,49537.63
2023-07-26T19:09:34.601Z,49517.69
2023-07-26T19:12:01.356Z,49527.66
2023-07-26T19:14:28.032Z,49539.63
2023-07-26T19:16:54.879Z,49489.78
2023-07-26T19:19:21.582Z,49531.63
2023-07-26T19:21:48.341Z,49559.56
2023-07-26T19:24:15.041Z,49545.59
2023-07-26T19:26:42.100Z,49551.56
2023-07-26T19:29:08.918Z,49513.69
2023-07-26T19:31:35.724Z,49531.63
2023-07-26T19:34:02.468Z,49527.66
2023-07-26T19:36:29.177Z,49517.69
2023-07-26T19:38:55.854Z,49501.75
2023-07-26T19:41:22.571Z,49555.56
2023-07-26T19:43:50.941Z,49559.56
2023-07-26T19:46:18.070Z,49537.63
2023-07-26T19:48:48.460Z,49549.59
2023-07-26T19:51:15.354Z,49571.50
2023-07-26T19:53:42.173Z,49551.56
2023-07-26T19:56:08.829Z,49563.53
2023-07-26T19:58:35.671Z,49565.53
2023-07-26T20:01:02.674Z,49537.63
2023-07-26T20:03:30.233Z,49539.63
2023-07-26T20:05:57.995Z,49527.66
2023-07-26T20:08:25.183Z,49547.59
2023-07-26T20:10:52.436Z,49545.59
2023-07-26T20:13:19.646Z,49551.56
2023-07-26T20:15:46.979Z,49547.59
2023-07-26T20:18:14.962Z,49533.63
2023-07-26T20:20:43.137Z,49555.56
2023-07-26T20:23:10.666Z,49543.59
2023-07-26T20:25:37.453Z,49539.63
2023-07-26T20:28:05.364Z,49539.63
2023-07-26T20:30:32.592Z,49555.56
2023-07-26T20:32:59.278Z,49513.69
2023-07-26T20:35:26.128Z,49527.66
2023-07-26T20:37:52.847Z,49533.63
2023-07-26T20:40:19.586Z,49545.59
2023-07-26T20:42:46.313Z,49527.66
2023-07-26T20:45:13.051Z,49575.50
2023-07-26T20:47:40.042Z,49547.59
2023-07-26T20:50:07.079Z,49555.56
2023-07-26T20:52:33.858Z,49575.50
2023-07-26T20:55:01.709Z,49575.50
2023-07-26T20:57:28.935Z,49555.56
2023-07-26T20:59:55.853Z,49583.47
2023-07-26T21:02:23.407Z,49553.56
2023-07-26T21:04:50.437Z,49563.53
2023-07-26T21:07:17.313Z,49547.59
2023-07-26T21:09:43.989Z,49555.56
2023-07-26T21:12:10.721Z,49531.63
2023-07-26T21:14:37.438Z,49535.63
2023-07-26T21:17:04.413Z,49591.44
2023-07-26T21:19:33.150Z,49537.63
2023-07-26T21:22:00.177Z,49599.41
2023-07-26T21:24:26.944Z,49591.44
2023-07-26T21:26:53.665Z,49559.56
2023-07-26T21:29:20.400Z,49543.59
2023-07-26T21:31:47.171Z,49583.47
2023-07-26T21:34:13.860Z,49555.56
2023-07-26T21:36:40.561Z,49555.56
2023-07-26T21:39:08.275Z,49587.47
2023-07-26T21:41:35.009Z,49583.47
2023-07-26T21:44:01.720Z,49577.50
2023-07-26T21:46:28.539Z,49559.56
2023-07-26T21:48:55.311Z,49603.41
2023-07-26T21:51:22.025Z,49569.50
2023-07-26T21:53:48.711Z,49587.47
2023-07-26T21:56:15.418Z,49549.59
2023-07-26T21:58:42.078Z,49575.50
2023-07-26T22:01:08.859Z,49551.56
2023-07-26T22:03:35.630Z,49567.53
2023-07-26T22:06:02.314Z,49553.56
2023-07-26T22:08:28.995Z,49591.44
2023-07-26T22:10:59.792Z,49575.50
2023-07-26T22:13:27.276Z,49583.47
2023-07-26T22:15:54.017Z,49515.69
2023-07-26T22:18:21.073Z,49597.44
2023-07-26T22:21:07.920Z,49537.63
2023-07-26T22:23:34.942Z,49549.59
2023-07-26T22:26:13.232Z,49575.50
2023-07-26T22:28:42.531Z,49591.44
2023-07-26T22:31:09.553Z,49567.53
2023-07-26T22:33:36.324Z,49583.47
2023-07-26T22:36:04.525Z,49561.53
2023-07-26T22:38:31.269Z,49587.47
2023-07-26T22:40:57.987Z,49549.59
2023-07-26T22:43:24.814Z,49571.50
2023-07-26T22:45:51.599Z,49603.41
2023-07-26T22:48:18.307Z,49585.47
2023-07-26T22:50:44.992Z,49569.50
2023-07-26T22:53:11.634Z,49571.50
2023-07-26T22:55:38.421Z,49567.53
2023-07-26T22:58:06.594Z,49595.44
2023-07-26T23:00:33.537Z,49599.41
2023-07-26T23:03:00.341Z,49577.50
2023-07-26T23:05:27.032Z,49579.47
2023-07-26T23:07:53.842Z,49583.47
2023-07-26T23:10:21.519Z,49579.47
2023-07-26T23:12:48.393Z,49613.38
2023-07-26T23:15:15.306Z,49593.44
2023-07-26T23:17:42.193Z,49607.41
2023-07-26T23:20:09.390Z,49617.38
2023-07-26T23:22:36.120Z,49615.38
2023-07-26T23:25:03.375Z,49577.50
2023-07-26T23:27:30.081Z,49583.47
2023-07-26T23:29:57.452Z,49617.38
2023-07-26T23:32:24.461Z,49639.28
2023-07-26T23:34:51.234Z,49621.34
2023-07-26T23:37:17.921Z,49601.41
2023-07-26T23:39:44.787Z,49619.34
2023-07-26T23:42:11.572Z,49605.41
2023-07-26T23:44:38.253Z,49615.38
2023-07-26T23:47:05.140Z,49599.41
2023-07-26T23:49:32.008Z,49589.44
2023-07-26T23:51:58.658Z,49591.44
2023-07-26T23:54:25.335Z,49619.34
2023-07-26T23:56:52.029Z,49583.47
2023-07-26T23:59:18.712Z,49619.34
